createdAt,value
2023-04-21T00:00:21.811Z,5.90
2023-04-21T00:02:30.862Z,5.47
2023-04-21T00:04:40.082Z,8.40
2023-04-21T00:06:48.804Z,6.37
2023-04-21T00:08:58.749Z,4.07
2023-04-21T00:11:07.368Z,3.20
2023-04-21T00:13:15.890Z,3.80
2023-04-21T00:15:24.423Z,4.87
2023-04-21T00:17:33.079Z,4.33
2023-04-21T00:19:42.293Z,5.77
2023-04-21T00:21:50.883Z,8.20
2023-04-21T00:24:00.824Z,7.20
2023-04-21T00:26:09.393Z,4.10
2023-04-21T00:28:17.969Z,6.20
2023-04-21T00:30:26.554Z,3.27
2023-04-21T00:32:35.009Z,5.37
2023-04-21T00:34:43.674Z,6.77
2023-04-21T00:36:52.245Z,2.97
2023-04-21T00:39:02.148Z,2.10
2023-04-21T00:41:10.642Z,2.67
2023-04-21T00:43:19.107Z,3.00
2023-04-21T00:45:27.566Z,3.43
2023-04-21T00:47:36.103Z,3.60
2023-04-21T00:49:44.610Z,2.93
2023-04-21T00:51:54.231Z,4.27
2023-04-21T00:54:04.639Z,4.77
2023-04-21T00:56:13.207Z,3.90
2023-04-21T00:58:22.136Z,4.67
2023-04-21T01:00:30.815Z,6.77
2023-04-21T01:02:42.594Z,5.27
2023-04-21T01:04:51.366Z,2.70
2023-04-21T01:07:00.640Z,3.63
2023-04-21T01:09:12.230Z,3.03
2023-04-21T01:11:21.416Z,4.70
2023-04-21T01:13:29.993Z,2.20
2023-04-21T01:15:38.484Z,4.80
2023-04-21T01:17:47.046Z,4.67
2023-04-21T01:19:58.466Z,8.27
2023-04-21T01:22:10.976Z,3.57
2023-04-21T01:24:19.516Z,2.63
2023-04-21T01:26:28.279Z,5.23
2023-04-21T01:28:36.917Z,4.20
2023-04-21T01:30:45.769Z,3.80
2023-04-21T01:32:54.350Z,6.37
2023-04-21T01:35:03.381Z,3.87
2023-04-21T01:37:14.171Z,2.87
2023-04-21T01:39:22.715Z,2.70
2023-04-21T01:41:31.245Z,4.33
2023-04-21T01:43:39.763Z,5.30
2023-04-21T01:45:51.151Z,2.80
2023-04-21T01:47:59.666Z,3.53
2023-04-21T01:50:09.845Z,3.00
2023-04-21T01:52:19.810Z,3.20
2023-04-21T01:54:28.378Z,3.60
2023-04-21T01:56:36.943Z,2.50
2023-04-21T01:58:45.484Z,3.47
2023-04-21T02:00:54.154Z,2.27
2023-04-21T02:03:02.845Z,3.17
2023-04-21T02:05:11.462Z,7.10
2023-04-21T02:07:21.384Z,5.53
2023-04-21T02:09:29.958Z,2.50
2023-04-21T02:11:38.365Z,4.60
2023-04-21T02:13:46.813Z,2.83
2023-04-21T02:16:09.627Z,4.67
2023-04-21T02:18:21.737Z,5.00
2023-04-21T02:20:30.465Z,2.73
2023-04-21T02:22:40.343Z,3.23
2023-04-21T02:24:51.480Z,5.87
2023-04-21T02:26:59.937Z,3.53
2023-04-21T02:29:08.467Z,8.90
2023-04-21T02:31:17.322Z,9.43
2023-04-21T02:33:25.885Z,5.40
2023-04-21T02:35:35.127Z,4.30
2023-04-21T02:37:44.988Z,7.70
2023-04-21T02:39:53.524Z,9.33
2023-04-21T02:42:02.115Z,4.97
2023-04-21T02:44:10.641Z,4.00
2023-04-21T02:46:19.273Z,7.20
2023-04-21T02:48:28.467Z,1.90
2023-04-21T02:50:37.000Z,3.50
2023-04-21T02:52:46.893Z,3.67
2023-04-21T02:54:55.461Z,5.37
2023-04-21T02:57:04.070Z,4.90
2023-04-21T02:59:16.445Z,5.17
2023-04-21T03:01:25.399Z,2.90
2023-04-21T03:03:34.313Z,2.40
2023-04-21T03:05:43.163Z,2.77
2023-04-21T03:07:53.089Z,4.23
2023-04-21T03:10:01.581Z,3.63
2023-04-21T03:12:10.184Z,3.37
2023-04-21T03:14:19.236Z,3.23
2023-04-21T03:16:28.099Z,3.07
2023-04-21T03:18:37.241Z,4.20
2023-04-21T03:20:45.790Z,3.40
2023-04-21T03:22:56.603Z,5.63
2023-04-21T03:25:06.475Z,1.80
2023-04-21T03:27:14.936Z,2.27
2023-04-21T03:29:23.307Z,2.17
2023-04-21T03:31:31.748Z,5.20
2023-04-21T03:33:40.256Z,5.20
2023-04-21T03:35:48.681Z,5.90
2023-04-21T03:37:58.695Z,2.83
2023-04-21T03:40:07.645Z,3.43
2023-04-21T03:42:16.131Z,5.80
2023-04-21T03:44:27.356Z,11.77
2023-04-21T03:46:35.846Z,2.67
2023-04-21T03:48:44.291Z,4.70
2023-04-21T03:50:52.835Z,2.80
2023-04-21T03:53:02.666Z,3.87
2023-04-21T03:55:11.702Z,2.13
2023-04-21T03:57:20.119Z,5.23
2023-04-21T03:59:28.721Z,9.50
2023-04-21T04:01:37.260Z,5.87
2023-04-21T04:03:45.947Z,5.80
2023-04-21T04:05:54.461Z,6.10
2023-04-21T04:08:04.385Z,2.63
2023-04-21T04:10:13.038Z,2.80
2023-04-21T04:12:21.562Z,3.07
2023-04-21T04:14:30.056Z,3.93
2023-04-21T04:16:38.571Z,6.83
2023-04-21T04:18:47.080Z,3.93
2023-04-21T04:20:55.616Z,2.00
2023-04-21T04:23:05.525Z,2.10
2023-04-21T04:25:17.119Z,3.10
2023-04-21T04:27:26.935Z,3.90
2023-04-21T04:29:36.315Z,3.47
2023-04-21T04:31:45.024Z,4.83
2023-04-21T04:33:54.858Z,6.23
2023-04-21T04:36:04.183Z,2.30
2023-04-21T04:38:14.868Z,11.60
2023-04-21T04:40:23.393Z,2.97
2023-04-21T04:42:33.113Z,5.00
2023-04-21T04:44:42.034Z,3.00
2023-04-21T04:46:50.709Z,10.93
2023-04-21T04:48:59.256Z,8.40
2023-04-21T04:51:07.801Z,3.67
2023-04-21T04:53:17.732Z,7.93
2023-04-21T04:55:26.723Z,7.10
2023-04-21T04:57:35.198Z,5.50
2023-04-21T04:59:43.660Z,7.40
2023-04-21T05:01:52.865Z,8.13
2023-04-21T05:04:01.590Z,9.33
2023-04-21T05:06:10.563Z,12.97
2023-04-21T05:08:20.425Z,10.07
2023-04-21T05:10:29.304Z,7.77
2023-04-21T05:12:37.888Z,10.57
2023-04-21T05:14:46.266Z,15.43
2023-04-21T05:16:54.784Z,11.97
2023-04-21T05:19:03.363Z,24.13
2023-04-21T05:21:11.840Z,7.03
2023-04-21T05:23:21.910Z,5.40
2023-04-21T05:25:30.391Z,16.63
2023-04-21T05:27:38.852Z,23.50
2023-04-21T05:29:47.396Z,24.97
2023-04-21T05:31:55.871Z,19.83
2023-04-21T05:34:04.415Z,23.03
2023-04-21T05:36:13.222Z,21.20
2023-04-21T05:38:23.104Z,16.37
2023-04-21T05:40:31.564Z,18.00
2023-04-21T05:42:39.936Z,9.77
2023-04-21T05:44:48.391Z,14.40
2023-04-21T05:46:57.048Z,10.00
2023-04-21T05:49:05.513Z,13.37
2023-04-21T05:51:15.685Z,25.37
2023-04-21T05:53:25.680Z,10.53
2023-04-21T05:55:35.729Z,17.13
2023-04-21T05:57:44.209Z,10.97
2023-04-21T05:59:52.838Z,12.40
2023-04-21T06:02:01.378Z,14.03
2023-04-21T06:04:10.088Z,7.33
2023-04-21T06:06:19.723Z,16.47
2023-04-21T06:08:29.774Z,12.87
2023-04-21T06:10:38.225Z,13.70
2023-04-21T06:12:46.649Z,12.20
2023-04-21T06:14:57.529Z,12.10
2023-04-21T06:17:05.926Z,10.73
2023-04-21T06:19:14.300Z,14.63
2023-04-21T06:21:22.872Z,10.23
2023-04-21T06:23:32.759Z,9.00
2023-04-21T06:25:41.222Z,13.80
2023-04-21T06:27:49.739Z,10.60
2023-04-21T06:29:58.191Z,12.80
2023-04-21T06:32:06.816Z,16.90
2023-04-21T06:34:15.717Z,15.83
2023-04-21T06:36:24.252Z,17.47
2023-04-21T06:38:34.483Z,18.13
2023-04-21T06:40:42.968Z,11.97
2023-04-21T06:42:51.422Z,25.13
2023-04-21T06:44:59.944Z,9.17
2023-04-21T06:47:08.973Z,10.27
2023-04-21T06:49:17.929Z,9.43
2023-04-21T06:51:27.146Z,6.10
2023-04-21T06:53:37.569Z,7.13
2023-04-21T06:55:46.383Z,5.63
2023-04-21T06:57:54.884Z,6.13
2023-04-21T07:00:05.650Z,9.13
2023-04-21T07:02:14.168Z,5.83
2023-04-21T07:04:22.818Z,9.97
2023-04-21T07:06:31.982Z,11.27
2023-04-21T07:08:42.273Z,8.80
2023-04-21T07:10:51.405Z,3.67
2023-04-21T07:13:00.624Z,8.47
2023-04-21T07:15:10.892Z,2.93
2023-04-21T07:17:19.616Z,6.00
2023-04-21T07:19:28.354Z,5.07
2023-04-21T07:21:37.174Z,4.37
2023-04-21T07:23:47.312Z,3.43
2023-04-21T07:25:56.168Z,5.77
2023-04-21T07:28:04.822Z,4.97
2023-04-21T07:30:13.697Z,3.47
2023-04-21T07:32:22.394Z,2.00
2023-04-21T07:34:30.964Z,2.83
2023-04-21T07:36:39.717Z,1.40
2023-04-21T07:38:49.560Z,1.03
2023-04-21T07:40:58.113Z,2.57
2023-04-21T07:43:06.661Z,4.40
2023-04-21T07:45:15.181Z,2.47
2023-04-21T07:47:23.869Z,1.10
2023-04-21T07:49:32.317Z,1.13
2023-04-21T07:51:41.089Z,2.77
2023-04-21T07:53:51.186Z,3.73
2023-04-21T07:55:59.691Z,3.13
2023-04-21T07:58:10.081Z,2.33
2023-04-21T08:00:18.961Z,1.33
2023-04-21T08:02:27.710Z,4.57
2023-04-21T08:04:36.480Z,1.07
2023-04-21T08:06:45.215Z,2.77
2023-04-21T08:08:55.973Z,2.33
2023-04-21T08:11:04.578Z,2.60
2023-04-21T08:13:13.031Z,3.67
2023-04-21T08:15:21.668Z,1.60
2023-04-21T08:17:30.213Z,2.17
2023-04-21T08:19:38.828Z,3.63
2023-04-21T08:21:47.374Z,1.37
2023-04-21T08:23:57.416Z,4.43
2023-04-21T08:26:06.043Z,2.67
2023-04-21T08:28:15.616Z,1.63
2023-04-21T08:30:24.209Z,2.63
2023-04-21T08:32:32.784Z,2.27
2023-04-21T08:34:41.598Z,1.30
2023-04-21T08:36:50.185Z,4.47
2023-04-21T08:39:00.383Z,2.10
2023-04-21T08:41:09.523Z,2.83
2023-04-21T08:43:18.100Z,1.10
2023-04-21T08:45:27.279Z,2.80
2023-04-21T08:47:36.087Z,2.33
2023-04-21T08:49:45.647Z,2.10
2023-04-21T08:51:54.095Z,2.23
2023-04-21T08:54:04.194Z,1.60
2023-04-21T08:56:12.621Z,1.43
2023-04-21T08:58:22.814Z,3.83
2023-04-21T09:00:31.401Z,6.77
2023-04-21T09:03:00.184Z,1.40
2023-04-21T09:05:10.007Z,2.00
2023-04-21T09:07:32.186Z,1.77
2023-04-21T09:09:57.827Z,4.43
2023-04-21T09:12:06.598Z,1.43
2023-04-21T09:14:15.143Z,1.80
2023-04-21T09:16:23.851Z,1.53
2023-04-21T09:18:36.231Z,4.53
2023-04-21T09:20:46.797Z,3.33
2023-04-21T09:22:55.371Z,2.23
2023-04-21T09:25:05.433Z,2.03
2023-04-21T09:27:13.986Z,1.63
2023-04-21T09:29:24.789Z,1.30
2023-04-21T09:31:37.144Z,3.57
2023-04-21T09:33:57.151Z,1.10
2023-04-21T09:36:07.171Z,1.20
2023-04-21T09:38:15.734Z,1.90
2023-04-21T09:40:25.734Z,1.50
2023-04-21T09:42:37.123Z,2.57
2023-04-21T09:44:55.373Z,3.43
2023-04-21T09:47:12.400Z,3.77
2023-04-21T09:49:23.267Z,4.37
2023-04-21T09:51:56.318Z,2.23
2023-04-21T09:54:01.958Z,4.13
2023-04-21T09:56:13.071Z,3.33
2023-04-21T09:58:24.174Z,2.50
2023-04-21T10:00:33.521Z,3.10
2023-04-21T10:02:45.230Z,3.77
2023-04-21T10:04:54.222Z,1.50
2023-04-21T10:07:03.016Z,1.33
2023-04-21T10:09:13.525Z,2.13
2023-04-21T10:11:24.134Z,1.37
2023-04-21T10:13:32.741Z,4.17
2023-04-21T10:15:42.028Z,2.17
2023-04-21T10:17:52.751Z,5.13
2023-04-21T10:20:01.632Z,1.53
2023-04-21T10:22:10.548Z,2.70
2023-04-21T10:24:19.616Z,2.30
2023-04-21T10:26:34.838Z,1.87
2023-04-21T10:28:58.255Z,1.67
2023-04-21T10:31:18.899Z,1.90
2023-04-21T10:33:29.177Z,3.50
2023-04-21T10:35:56.372Z,2.37
2023-04-21T10:38:08.723Z,1.20
2023-04-21T10:40:43.838Z,2.83
2023-04-21T10:42:54.353Z,1.97
2023-04-21T10:45:20.572Z,2.03
2023-04-21T10:47:29.777Z,4.03
2023-04-21T10:49:40.182Z,1.40
2023-04-21T10:52:16.268Z,2.20
2023-04-21T10:54:25.841Z,2.30
2023-04-21T10:56:36.851Z,2.20
2023-04-21T10:58:48.358Z,2.57
2023-04-21T11:00:57.030Z,2.70
2023-04-21T11:03:06.494Z,3.00
2023-04-21T11:05:15.686Z,4.97
2023-04-21T11:07:25.524Z,2.80
2023-04-21T11:09:34.114Z,1.40
2023-04-21T11:11:42.604Z,1.43
2023-04-21T11:13:54.460Z,2.03
2023-04-21T11:16:08.314Z,2.23
2023-04-21T11:18:16.736Z,1.40
2023-04-21T11:20:25.320Z,2.73
2023-04-21T11:22:34.716Z,2.33
2023-04-21T11:24:46.268Z,2.27
2023-04-21T11:26:54.724Z,1.67
2023-04-21T11:29:06.067Z,2.20
2023-04-21T11:31:14.654Z,1.33
2023-04-21T11:33:23.674Z,2.57
2023-04-21T11:35:33.287Z,1.77
2023-04-21T11:37:41.715Z,2.20
2023-04-21T11:39:50.201Z,3.33
2023-04-21T11:41:58.635Z,4.60
2023-04-21T11:44:09.085Z,2.80
2023-04-21T11:46:21.383Z,2.67
2023-04-21T11:48:31.624Z,2.47
2023-04-21T11:50:40.062Z,3.30
2023-04-21T11:52:48.782Z,1.80
2023-04-21T11:54:58.180Z,3.50
2023-04-21T11:57:09.946Z,6.73
2023-04-21T11:59:24.982Z,1.43
2023-04-21T12:01:34.355Z,1.93
2023-04-21T12:03:43.134Z,1.20
2023-04-21T12:05:58.478Z,2.30
2023-04-21T12:08:07.534Z,1.13
2023-04-21T12:10:16.969Z,2.17
2023-04-21T12:12:25.453Z,3.73
2023-04-21T12:14:35.737Z,1.93
2023-04-21T12:16:44.615Z,2.67
2023-04-21T12:18:53.182Z,10.10
2023-04-21T12:21:04.317Z,2.90
2023-04-21T12:23:12.800Z,3.93
2023-04-21T12:25:21.326Z,2.47
2023-04-21T12:27:29.915Z,2.33
2023-04-21T12:29:39.778Z,1.73
2023-04-21T12:31:48.353Z,1.20
2023-04-21T12:33:57.605Z,2.60
2023-04-21T12:36:06.320Z,2.87
2023-04-21T12:38:14.804Z,2.70
2023-04-21T12:40:23.880Z,2.07
2023-04-21T12:42:33.096Z,2.10
2023-04-21T12:44:43.690Z,2.77
2023-04-21T12:46:52.175Z,2.70
2023-04-21T12:49:00.787Z,5.10
2023-04-21T12:51:09.488Z,1.93
2023-04-21T12:53:18.024Z,1.50
2023-04-21T12:55:26.845Z,3.50
2023-04-21T12:57:35.684Z,2.47
2023-04-21T12:59:46.528Z,3.90
2023-04-21T13:01:55.179Z,1.97
2023-04-21T13:04:03.992Z,2.10
2023-04-21T13:06:12.876Z,2.40
2023-04-21T13:08:21.370Z,2.47
2023-04-21T13:10:29.800Z,2.10
2023-04-21T13:12:38.554Z,1.47
2023-04-21T13:14:48.698Z,2.87
2023-04-21T13:16:57.436Z,3.10
2023-04-21T13:19:06.338Z,2.53
2023-04-21T13:21:15.132Z,2.93
2023-04-21T13:23:23.578Z,1.70
2023-04-21T13:25:32.174Z,2.63
2023-04-21T13:27:40.715Z,2.73
2023-04-21T13:29:50.920Z,5.47
2023-04-21T13:31:59.395Z,4.87
2023-04-21T13:34:07.912Z,3.77
2023-04-21T13:36:16.451Z,2.13
2023-04-21T13:38:24.901Z,3.80
2023-04-21T13:40:33.451Z,1.50
2023-04-21T13:42:42.285Z,2.03
2023-04-21T13:44:52.572Z,1.70
2023-04-21T13:47:01.342Z,1.03
2023-04-21T13:49:09.979Z,2.37
2023-04-21T13:51:18.531Z,2.53
2023-04-21T13:53:27.081Z,1.60
2023-04-21T13:55:35.746Z,4.27
2023-04-21T13:57:44.364Z,4.70
2023-04-21T13:59:54.987Z,1.50
2023-04-21T14:02:03.592Z,1.27
2023-04-21T14:04:12.414Z,1.93
2023-04-21T14:06:21.243Z,1.60
2023-04-21T14:08:29.757Z,7.93
2023-04-21T14:10:38.333Z,2.13
2023-04-21T14:12:48.056Z,3.07
2023-04-21T14:14:57.863Z,2.00
2023-04-21T14:17:06.350Z,2.33
2023-04-21T14:19:15.595Z,4.07
2023-04-21T14:21:24.016Z,2.30
2023-04-21T14:23:32.472Z,2.43
2023-04-21T14:25:40.968Z,1.57
2023-04-21T14:27:49.457Z,3.40
2023-04-21T14:29:59.656Z,2.13
2023-04-21T14:32:08.169Z,2.20
2023-04-21T14:34:16.682Z,3.83
2023-04-21T14:36:25.206Z,3.30
2023-04-21T14:38:35.743Z,2.17
2023-04-21T14:40:44.235Z,3.37
2023-04-21T14:42:52.743Z,2.87
2023-04-21T14:45:02.668Z,4.47
2023-04-21T14:47:11.707Z,2.33
2023-04-21T14:49:20.457Z,4.37
2023-04-21T14:51:29.074Z,2.87
2023-04-21T14:53:37.551Z,3.57
2023-04-21T14:55:46.108Z,11.10
2023-04-21T14:57:54.596Z,3.83
2023-04-21T15:00:06.409Z,4.20
2023-04-21T15:02:15.266Z,2.40
2023-04-21T15:04:24.229Z,2.60
2023-04-21T15:06:32.888Z,2.83
2023-04-21T15:08:41.583Z,3.07
2023-04-21T15:10:50.323Z,4.67
2023-04-21T15:12:59.140Z,2.37
2023-04-21T15:15:10.201Z,3.17
2023-04-21T15:17:18.772Z,3.33
2023-04-21T15:19:27.358Z,1.70
2023-04-21T15:21:35.917Z,2.80
2023-04-21T15:23:44.475Z,2.93
2023-04-21T15:25:53.265Z,2.10
2023-04-21T15:28:02.491Z,1.67
2023-04-21T15:30:13.110Z,2.80
2023-04-21T15:32:21.728Z,4.23
2023-04-21T15:34:30.226Z,1.97
2023-04-21T15:36:39.202Z,3.10
2023-04-21T15:38:47.698Z,3.03
2023-04-21T15:41:00.990Z,2.23
2023-04-21T15:43:10.021Z,3.07
2023-04-21T15:45:20.134Z,2.73
2023-04-21T15:47:28.679Z,2.20
2023-04-21T15:49:37.503Z,2.70
2023-04-21T15:51:46.938Z,1.40
2023-04-21T15:53:55.593Z,4.07
2023-04-21T15:56:04.459Z,1.70
2023-04-21T15:58:13.579Z,2.87
2023-04-21T16:00:24.635Z,1.67
2023-04-21T16:02:33.402Z,5.73
2023-04-21T16:04:42.476Z,2.70
2023-04-21T16:06:51.601Z,4.33
2023-04-21T16:09:00.100Z,1.77
2023-04-21T16:11:08.994Z,3.30
2023-04-21T16:13:17.714Z,2.30
2023-04-21T16:15:27.753Z,2.33
2023-04-21T16:17:36.803Z,3.07
2023-04-21T16:19:45.592Z,3.47
2023-04-21T16:21:55.119Z,2.83
2023-04-21T16:24:06.057Z,2.07
2023-04-21T16:26:15.992Z,1.57
2023-04-21T16:28:24.814Z,4.27
2023-04-21T16:30:35.224Z,9.60
2023-04-21T16:32:43.833Z,2.90
2023-04-21T16:34:52.433Z,4.73
2023-04-21T16:37:01.319Z,4.63
2023-04-21T16:39:09.775Z,3.23
2023-04-21T16:41:20.854Z,5.53
2023-04-21T16:43:29.658Z,2.13
2023-04-21T16:45:39.778Z,2.13
2023-04-21T16:47:48.374Z,3.23
2023-04-21T16:49:57.157Z,2.00
2023-04-21T16:52:06.234Z,3.53
2023-04-21T16:54:15.248Z,2.20
2023-04-21T16:56:23.832Z,2.33
2023-04-21T16:58:32.310Z,2.57
2023-04-21T17:00:42.273Z,2.37
2023-04-21T17:02:51.031Z,4.07
2023-04-21T17:04:59.555Z,2.60
2023-04-21T17:07:08.302Z,1.60
2023-04-21T17:09:16.789Z,3.13
2023-04-21T17:11:25.302Z,2.07
2023-04-21T17:13:38.073Z,7.67
2023-04-21T17:15:48.057Z,2.70
2023-04-21T17:17:56.599Z,5.93
2023-04-21T17:20:05.131Z,3.00
2023-04-21T17:22:13.537Z,1.97
2023-04-21T17:24:22.096Z,2.70
2023-04-21T17:26:30.581Z,1.83
2023-04-21T17:28:39.095Z,1.50
2023-04-21T17:30:50.455Z,2.20
2023-04-21T17:33:12.690Z,1.60
2023-04-21T17:35:24.235Z,2.73
2023-04-21T17:37:32.770Z,2.67
2023-04-21T17:39:41.262Z,1.90
2023-04-21T17:41:49.842Z,1.50
2023-04-21T17:43:58.788Z,4.40
2023-04-21T17:46:08.886Z,1.90
2023-04-21T17:48:17.492Z,3.43
2023-04-21T17:50:27.848Z,2.87
2023-04-21T17:52:36.383Z,1.50
2023-04-21T17:54:45.648Z,1.47
2023-04-21T17:56:54.119Z,3.60
2023-04-21T17:59:03.127Z,2.57
2023-04-21T18:01:13.255Z,2.50
2023-04-21T18:03:22.220Z,3.80
2023-04-21T18:05:31.031Z,4.03
2023-04-21T18:07:40.200Z,2.23
2023-04-21T18:09:51.535Z,3.03
2023-04-21T18:12:00.621Z,3.60
2023-04-21T18:14:09.416Z,4.97
2023-04-21T18:16:19.465Z,4.17
2023-04-21T18:18:28.014Z,4.53
2023-04-21T18:20:36.603Z,4.10
2023-04-21T18:22:45.120Z,9.70
2023-04-21T18:24:54.026Z,3.80
2023-04-21T18:27:02.817Z,4.67
2023-04-21T18:29:11.509Z,3.67
2023-04-21T18:31:25.892Z,5.37
2023-04-21T18:33:34.574Z,9.50
2023-04-21T18:35:43.509Z,11.73
2023-04-21T18:37:52.039Z,9.07
2023-04-21T18:40:00.583Z,6.07
2023-04-21T18:42:09.020Z,5.53
2023-04-21T18:44:17.664Z,3.63
2023-04-21T18:46:27.855Z,5.47
2023-04-21T18:48:36.424Z,5.03
2023-04-21T18:50:44.880Z,3.50
2023-04-21T18:52:53.372Z,3.87
2023-04-21T18:55:01.897Z,4.47
2023-04-21T18:57:10.335Z,3.93
2023-04-21T18:59:19.213Z,5.43
2023-04-21T19:01:29.448Z,5.60
2023-04-21T19:03:38.238Z,5.13
2023-04-21T19:05:47.116Z,4.27
2023-04-21T19:07:55.616Z,8.60
2023-04-21T19:10:04.484Z,8.70
2023-04-21T19:12:14.398Z,8.03
2023-04-21T19:14:22.961Z,9.50
2023-04-21T19:16:32.783Z,8.30
2023-04-21T19:18:41.724Z,8.20
2023-04-21T19:20:50.263Z,7.70
2023-04-21T19:22:58.759Z,4.30
2023-04-21T19:25:08.540Z,4.20
2023-04-21T19:27:17.068Z,6.23
2023-04-21T19:29:25.584Z,7.87
2023-04-21T19:31:35.480Z,10.07
2023-04-21T19:33:44.126Z,11.67
2023-04-21T19:35:52.711Z,9.90
2023-04-21T19:38:01.224Z,7.50
2023-04-21T19:40:10.445Z,8.17
2023-04-21T19:42:18.901Z,6.10
2023-04-21T19:44:27.371Z,6.20
2023-04-21T19:46:37.359Z,6.43
2023-04-21T19:48:46.278Z,10.97
2023-04-21T19:50:54.736Z,5.07
2023-04-21T19:53:03.657Z,8.40
2023-04-21T19:55:12.170Z,12.63
2023-04-21T19:57:20.668Z,9.10
2023-04-21T19:59:29.241Z,7.40
2023-04-21T20:01:39.120Z,7.67
2023-04-21T20:03:47.967Z,11.77
2023-04-21T20:05:56.642Z,14.13
2023-04-21T20:08:05.115Z,11.87
2023-04-21T20:10:13.810Z,14.47
2023-04-21T20:12:22.347Z,10.63
2023-04-21T20:14:31.386Z,15.80
2023-04-21T20:16:41.520Z,14.27
2023-04-21T20:18:50.683Z,7.30
2023-04-21T20:20:59.219Z,10.07
2023-04-21T20:23:07.888Z,8.23
2023-04-21T20:25:16.505Z,6.07
2023-04-21T20:27:24.975Z,8.20
2023-04-21T20:29:33.648Z,9.67
2023-04-21T20:31:45.344Z,8.73
2023-04-21T20:33:53.832Z,10.23
2023-04-21T20:36:07.276Z,11.93
2023-04-21T20:38:16.179Z,9.93
2023-04-21T20:40:24.974Z,10.10
2023-04-21T20:42:33.586Z,9.97
2023-04-21T20:44:42.873Z,11.23
2023-04-21T20:46:53.684Z,11.50
2023-04-21T20:49:02.327Z,11.80
2023-04-21T20:51:11.273Z,10.87
2023-04-21T20:53:21.210Z,14.13
2023-04-21T20:55:30.489Z,9.23
2023-04-21T20:57:40.107Z,9.63
2023-04-21T20:59:49.113Z,7.77
2023-04-21T21:01:59.612Z,7.77
2023-04-21T21:04:08.750Z,10.63
2023-04-21T21:06:19.794Z,8.37
2023-04-21T21:08:29.772Z,8.40
2023-04-21T21:10:38.495Z,10.33
2023-04-21T21:12:47.050Z,17.73
2023-04-21T21:14:56.116Z,11.83
2023-04-21T21:17:06.439Z,24.83
2023-04-21T21:19:15.517Z,11.47
2023-04-21T21:21:24.576Z,13.77
2023-04-21T21:23:33.587Z,10.87
2023-04-21T21:25:42.424Z,5.50
2023-04-21T21:27:51.705Z,14.57
2023-04-21T21:30:00.626Z,7.40
2023-04-21T21:32:11.503Z,9.10
2023-04-21T21:34:20.541Z,5.47
2023-04-21T21:36:29.515Z,5.63
2023-04-21T21:38:38.519Z,6.33
2023-04-21T21:40:47.557Z,5.70
2023-04-21T21:42:56.511Z,5.00
2023-04-21T21:45:05.128Z,6.40
2023-04-21T21:47:17.516Z,6.10
2023-04-21T21:49:27.165Z,3.97
2023-04-21T21:51:35.858Z,9.27
2023-04-21T21:53:44.883Z,9.27
2023-04-21T21:55:53.427Z,7.07
2023-04-21T21:58:04.360Z,7.53
2023-04-21T22:00:15.008Z,11.90
2023-04-21T22:02:25.581Z,6.43
2023-04-21T22:04:34.723Z,6.40
2023-04-21T22:06:45.441Z,6.27
2023-04-21T22:08:54.439Z,10.13
2023-04-21T22:11:06.212Z,10.10
2023-04-21T22:13:15.137Z,6.07
2023-04-21T22:15:23.669Z,7.10
2023-04-21T22:17:34.848Z,4.93
2023-04-21T22:19:43.542Z,6.67
2023-04-21T22:21:52.213Z,6.60
2023-04-21T22:24:01.058Z,6.97
2023-04-21T22:26:10.803Z,7.40
2023-04-21T22:28:19.554Z,4.70
2023-04-21T22:30:28.582Z,6.73
2023-04-21T22:32:39.439Z,4.23
2023-04-21T22:34:48.478Z,16.73
2023-04-21T22:36:57.718Z,7.77
2023-04-21T22:39:06.622Z,9.27
2023-04-21T22:41:15.607Z,13.80
2023-04-21T22:43:24.296Z,5.40
2023-04-21T22:45:33.568Z,9.00
2023-04-21T22:47:44.280Z,5.27
2023-04-21T22:49:53.551Z,4.90
2023-04-21T22:52:02.445Z,5.87
2023-04-21T22:54:11.665Z,5.00
2023-04-21T22:56:21.106Z,9.73
2023-04-21T22:58:29.744Z,5.00
2023-04-21T23:00:38.677Z,8.57
2023-04-21T23:02:49.249Z,7.63
2023-04-21T23:04:58.406Z,5.50
2023-04-21T23:07:07.129Z,4.80
2023-04-21T23:09:15.798Z,7.63
2023-04-21T23:11:24.911Z,9.20
2023-04-21T23:13:33.932Z,4.73
2023-04-21T23:15:42.958Z,4.63
2023-04-21T23:17:53.244Z,5.90
2023-04-21T23:20:04.085Z,6.03
2023-04-21T23:22:13.018Z,8.83
2023-04-21T23:24:21.939Z,7.37
2023-04-21T23:26:30.917Z,7.77
2023-04-21T23:28:39.969Z,4.73
2023-04-21T23:30:48.828Z,7.10
2023-04-21T23:32:59.721Z,4.63
2023-04-21T23:35:09.843Z,6.77
2023-04-21T23:37:18.814Z,6.30
2023-04-21T23:39:27.329Z,6.87
2023-04-21T23:41:36.435Z,7.30
2023-04-21T23:43:45.276Z,4.73
2023-04-21T23:45:54.183Z,7.30
2023-04-21T23:48:05.150Z,6.10
2023-04-21T23:50:14.324Z,6.10
2023-04-21T23:52:23.551Z,7.43
2023-04-21T23:54:32.950Z,5.50
2023-04-21T23:56:41.822Z,6.73
2023-04-21T23:58:50.862Z,7.07
